createdAt,value
2023-02-17T00:00:04.961Z,65.01
2023-02-17T00:03:13.505Z,64.37
2023-02-17T00:06:21.969Z,64.36
2023-02-17T00:09:30.951Z,64.00
2023-02-17T00:12:36.515Z,64.10
2023-02-17T00:15:43.094Z,63.79
2023-02-17T00:18:49.318Z,63.84
2023-02-17T00:21:58.415Z,63.77
2023-02-17T00:25:07.093Z,64.16
2023-02-17T00:28:13.434Z,63.84
2023-02-17T00:31:24.308Z,63.74
2023-02-17T00:34:30.972Z,63.41
2023-02-17T00:37:38.712Z,62.76
2023-02-17T00:40:48.013Z,63.44
2023-02-17T00:43:53.433Z,62.55
2023-02-17T00:47:01.500Z,63.09
2023-02-17T00:50:07.480Z,62.15
2023-02-17T00:53:13.670Z,62.45
2023-02-17T00:56:22.240Z,62.80
2023-02-17T00:59:28.460Z,63.37
2023-02-17T01:02:33.853Z,62.49
2023-02-17T01:05:45.421Z,62.88
2023-02-17T01:08:53.257Z,63.21
2023-02-17T01:12:02.827Z,62.89
2023-02-17T01:15:12.035Z,62.28
2023-02-17T01:18:20.757Z,62.36
2023-02-17T01:21:31.903Z,62.29
2023-02-17T01:24:38.498Z,63.26
2023-02-17T01:27:47.302Z,63.37
2023-02-17T01:30:53.857Z,63.25
2023-02-17T01:34:02.893Z,63.52
2023-02-17T01:37:09.463Z,63.51
2023-02-17T01:40:17.138Z,63.02
2023-02-17T01:43:26.331Z,63.46
2023-02-17T01:46:31.767Z,63.51
2023-02-17T01:49:44.423Z,64.36
2023-02-17T01:52:58.145Z,64.38
2023-02-17T01:56:07.039Z,64.55
2023-02-17T01:59:23.870Z,65.16
2023-02-17T02:02:32.268Z,65.54
2023-02-17T02:05:38.707Z,65.17
2023-02-17T02:08:57.949Z,65.63
2023-02-17T02:12:03.378Z,65.56
2023-02-17T02:15:27.044Z,65.60
2023-02-17T02:18:57.863Z,65.61
2023-02-17T02:22:40.345Z,65.66
2023-02-17T02:26:35.912Z,66.40
2023-02-17T02:30:34.971Z,65.50
2023-02-17T02:33:53.987Z,65.21
2023-02-17T02:37:12.254Z,65.03
2023-02-17T02:40:26.721Z,65.07
2023-02-17T02:43:35.466Z,64.93
2023-02-17T02:46:40.995Z,64.90
2023-02-17T02:49:50.287Z,64.91
2023-02-17T02:53:23.339Z,65.31
2023-02-17T02:56:52.041Z,64.35
2023-02-17T03:00:17.432Z,64.09
2023-02-17T03:03:37.706Z,64.18
2023-02-17T03:06:56.948Z,63.67
2023-02-17T03:10:04.245Z,63.49
2023-02-17T03:13:10.022Z,63.91
2023-02-17T03:16:17.244Z,63.76
2023-02-17T03:19:27.763Z,64.36
2023-02-17T03:22:43.526Z,64.17
2023-02-17T03:25:49.243Z,63.72
2023-02-17T03:28:56.035Z,63.73
2023-02-17T03:32:02.069Z,64.24
2023-02-17T03:35:09.657Z,64.15
2023-02-17T03:38:17.955Z,63.39
2023-02-17T03:41:24.304Z,63.26
2023-02-17T03:44:29.878Z,62.88
2023-02-17T03:47:36.172Z,63.62
2023-02-17T03:50:41.613Z,62.90
2023-02-17T03:53:52.149Z,63.15
2023-02-17T03:56:59.521Z,62.22
2023-02-17T04:00:07.172Z,62.62
2023-02-17T04:03:18.238Z,62.38
2023-02-17T04:06:25.252Z,61.86
2023-02-17T04:09:33.747Z,61.68
2023-02-17T04:12:40.771Z,61.52
2023-02-17T04:15:46.120Z,61.71
2023-02-17T04:18:52.451Z,60.92
2023-02-17T04:21:57.876Z,60.96
2023-02-17T04:25:07.036Z,61.91
2023-02-17T04:28:13.026Z,60.99
2023-02-17T04:31:19.496Z,60.61
2023-02-17T04:34:24.995Z,60.85
2023-02-17T04:37:31.272Z,61.49
2023-02-17T04:40:39.791Z,61.17
2023-02-17T04:43:46.100Z,61.25
2023-02-17T04:46:51.469Z,59.83
2023-02-17T04:49:58.413Z,60.34
2023-02-17T04:53:03.860Z,60.94
2023-02-17T04:56:13.187Z,60.50
2023-02-17T04:59:18.629Z,60.76
2023-02-17T05:02:27.003Z,60.14
2023-02-17T05:05:32.716Z,60.80
2023-02-17T05:08:39.000Z,60.30
2023-02-17T05:11:47.249Z,59.45
2023-02-17T05:14:53.503Z,60.61
2023-02-17T05:17:58.965Z,59.57
2023-02-17T05:21:05.368Z,59.34
2023-02-17T05:24:11.317Z,60.10
2023-02-17T05:27:20.699Z,60.50
2023-02-17T05:30:26.678Z,60.12
2023-02-17T05:33:33.569Z,59.24
2023-02-17T05:36:38.965Z,59.08
2023-02-17T05:39:45.384Z,59.77
2023-02-17T05:42:53.595Z,59.75
2023-02-17T05:45:59.905Z,61.09
2023-02-17T05:49:05.371Z,60.00
2023-02-17T05:52:11.767Z,59.71
2023-02-17T05:55:17.654Z,61.08
2023-02-17T05:58:27.619Z,60.27
2023-02-17T06:01:34.000Z,60.15
2023-02-17T06:04:41.715Z,59.96
2023-02-17T06:07:50.562Z,59.56
2023-02-17T06:10:57.758Z,59.60
2023-02-17T06:14:06.576Z,59.42
2023-02-17T06:17:13.097Z,59.90
2023-02-17T06:20:19.590Z,59.16
2023-02-17T06:23:26.467Z,60.25
2023-02-17T06:26:32.152Z,59.74
2023-02-17T06:29:41.520Z,60.14
2023-02-17T06:32:47.290Z,60.05
2023-02-17T06:35:54.848Z,59.77
2023-02-17T06:39:00.230Z,59.52
2023-02-17T06:42:07.186Z,60.32
2023-02-17T06:45:19.633Z,58.88
2023-02-17T06:48:26.202Z,59.22
2023-02-17T06:51:31.885Z,60.09
2023-02-17T06:54:38.253Z,59.80
2023-02-17T06:57:43.660Z,59.45
2023-02-17T07:00:52.934Z,58.59
2023-02-17T07:04:00.133Z,58.67
2023-02-17T07:07:06.687Z,58.36
2023-02-17T07:10:14.317Z,59.56
2023-02-17T07:13:20.644Z,58.77
2023-02-17T07:16:29.054Z,57.92
2023-02-17T07:19:35.746Z,58.12
2023-02-17T07:22:41.773Z,58.70
2023-02-17T07:25:48.159Z,57.64
2023-02-17T07:28:53.540Z,58.05
2023-02-17T07:32:02.677Z,58.10
2023-02-17T07:35:08.775Z,57.89
2023-02-17T07:38:16.005Z,57.85
2023-02-17T07:41:25.290Z,57.58
2023-02-17T07:44:32.147Z,56.64
2023-02-17T07:47:40.357Z,57.05
2023-02-17T07:50:46.614Z,57.38
2023-02-17T07:53:55.208Z,56.68
2023-02-17T07:57:01.607Z,57.39
2023-02-17T08:00:10.835Z,56.40
2023-02-17T08:03:23.001Z,56.13
2023-02-17T08:06:29.754Z,56.90
2023-02-17T08:09:51.963Z,56.67
2023-02-17T08:13:13.044Z,56.45
2023-02-17T08:16:19.683Z,56.48
2023-02-17T08:19:39.621Z,55.83
2023-02-17T08:22:53.186Z,56.00
2023-02-17T08:26:00.848Z,56.16
2023-02-17T08:29:07.669Z,56.03
2023-02-17T08:32:13.741Z,55.83
2023-02-17T08:35:23.279Z,55.49
2023-02-17T08:38:29.089Z,55.86
2023-02-17T08:41:40.070Z,56.64
2023-02-17T08:44:45.732Z,57.18
2023-02-17T08:47:51.989Z,57.14
2023-02-17T08:51:00.133Z,57.27
2023-02-17T08:54:10.528Z,57.23
2023-02-17T08:57:16.060Z,57.56
2023-02-17T09:00:23.084Z,57.53
2023-02-17T09:03:29.477Z,57.61
2023-02-17T09:06:42.482Z,56.99
2023-02-17T09:09:48.284Z,57.30
2023-02-17T09:13:01.999Z,57.63
2023-02-17T09:16:08.428Z,57.78
2023-02-17T09:19:15.565Z,57.55
2023-02-17T09:22:32.120Z,57.61
2023-02-17T09:25:38.893Z,57.24
2023-02-17T09:28:45.779Z,57.87
2023-02-17T09:31:52.080Z,57.68
2023-02-17T09:34:59.107Z,58.23
2023-02-17T09:38:10.485Z,58.07
2023-02-17T09:41:24.348Z,58.59
2023-02-17T09:44:45.259Z,59.26
2023-02-17T09:47:56.283Z,58.72
2023-02-17T09:51:13.302Z,59.24
2023-02-17T09:54:31.541Z,60.27
2023-02-17T09:57:47.243Z,61.26
2023-02-17T10:01:00.025Z,61.76
2023-02-17T10:04:18.357Z,61.78
2023-02-17T10:07:34.351Z,61.71
2023-02-17T10:10:57.204Z,61.79
2023-02-17T10:14:17.104Z,61.94
2023-02-17T10:17:37.929Z,62.09
2023-02-17T10:20:52.424Z,62.02
2023-02-17T10:24:02.211Z,62.63
2023-02-17T10:27:37.563Z,62.79
2023-02-17T10:31:05.231Z,63.47
2023-02-17T10:34:29.264Z,62.64
2023-02-17T10:37:50.409Z,62.09
2023-02-17T10:40:59.574Z,61.96
2023-02-17T10:44:17.543Z,61.58
2023-02-17T10:47:25.598Z,61.64
2023-02-17T10:50:33.370Z,61.15
2023-02-17T10:53:44.113Z,60.67
2023-02-17T10:56:58.074Z,60.93
2023-02-17T11:00:09.410Z,60.65
2023-02-17T11:03:24.049Z,61.25
2023-02-17T11:06:29.616Z,61.53
2023-02-17T11:09:37.937Z,61.08
2023-02-17T11:12:45.933Z,60.65
2023-02-17T11:15:55.070Z,60.38
2023-02-17T11:19:00.681Z,60.41
2023-02-17T11:22:29.043Z,60.30
2023-02-17T11:25:39.060Z,59.90
2023-02-17T11:28:45.321Z,59.48
2023-02-17T11:32:05.076Z,59.44
2023-02-17T11:35:28.072Z,59.32
2023-02-17T11:38:48.092Z,58.68
2023-02-17T11:41:54.618Z,58.51
2023-02-17T11:45:03.303Z,58.46
2023-02-17T11:48:55.656Z,58.69
2023-02-17T11:52:24.829Z,59.17
2023-02-17T11:55:47.521Z,58.89
2023-02-17T11:59:32.832Z,59.62
2023-02-17T12:03:06.036Z,59.88
2023-02-17T12:06:24.413Z,59.92
2023-02-17T12:09:45.516Z,60.10
2023-02-17T12:13:24.624Z,59.58
2023-02-17T12:16:51.426Z,60.37
2023-02-17T12:20:18.247Z,60.29
2023-02-17T12:24:06.983Z,60.52
2023-02-17T12:27:36.610Z,60.45
2023-02-17T12:31:05.585Z,60.40
2023-02-17T12:34:28.577Z,60.38
2023-02-17T12:37:49.110Z,60.15
2023-02-17T12:41:09.731Z,60.23
2023-02-17T12:44:24.108Z,60.52
2023-02-17T12:47:42.228Z,60.38
2023-02-17T12:51:03.756Z,60.67
2023-02-17T12:54:23.567Z,60.71
2023-02-17T12:57:53.524Z,60.63
2023-02-17T13:01:13.642Z,60.09
2023-02-17T13:04:26.472Z,60.23
2023-02-17T13:07:51.426Z,60.48
2023-02-17T13:11:07.535Z,60.41
2023-02-17T13:14:31.923Z,60.64
2023-02-17T13:17:54.985Z,60.50
2023-02-17T13:21:04.990Z,60.76
2023-02-17T13:24:33.731Z,60.79
2023-02-17T13:27:42.858Z,60.80
2023-02-17T13:30:54.300Z,60.94
2023-02-17T13:34:02.722Z,61.00
2023-02-17T13:37:28.459Z,60.67
2023-02-17T13:40:43.617Z,60.91
2023-02-17T13:43:50.123Z,60.73
2023-02-17T13:47:05.419Z,60.63
2023-02-17T13:50:35.591Z,60.72
2023-02-17T13:53:44.022Z,60.37
2023-02-17T13:56:56.422Z,60.37
2023-02-17T14:00:24.421Z,60.65
2023-02-17T14:03:44.228Z,60.44
2023-02-17T14:06:51.148Z,60.92
2023-02-17T14:09:58.618Z,60.68
2023-02-17T14:13:04.378Z,60.88
2023-02-17T14:16:28.971Z,60.88
2023-02-17T14:19:50.792Z,60.95
2023-02-17T14:23:06.935Z,61.02
2023-02-17T14:26:28.953Z,60.82
2023-02-17T14:29:46.025Z,61.55
2023-02-17T14:32:51.495Z,62.53
2023-02-17T14:36:08.233Z,62.58
2023-02-17T14:39:18.665Z,62.74
2023-02-17T14:42:24.982Z,63.09
2023-02-17T14:45:30.455Z,63.09
2023-02-17T14:48:36.887Z,63.44
2023-02-17T14:51:45.053Z,64.03
2023-02-17T14:54:52.169Z,64.42
2023-02-17T14:57:58.190Z,64.91
2023-02-17T15:01:05.948Z,65.37
2023-02-17T15:04:11.357Z,66.48
2023-02-17T15:07:22.506Z,66.27
2023-02-17T15:10:32.055Z,66.60
2023-02-17T15:13:38.456Z,66.57
2023-02-17T15:16:44.304Z,67.09
2023-02-17T15:19:50.568Z,66.88
2023-02-17T15:23:02.025Z,66.61
2023-02-17T15:26:12.596Z,66.66
2023-02-17T15:29:21.090Z,66.37
2023-02-17T15:32:27.710Z,66.22
2023-02-17T15:35:33.463Z,66.14
2023-02-17T15:38:42.630Z,66.41
2023-02-17T15:41:50.480Z,66.47
2023-02-17T15:44:56.833Z,66.11
2023-02-17T15:48:09.502Z,65.90
2023-02-17T15:51:19.526Z,65.65
2023-02-17T15:54:27.765Z,65.96
2023-02-17T15:57:34.101Z,65.75
2023-02-17T16:00:39.813Z,65.26
2023-02-17T16:03:46.333Z,65.38
2023-02-17T16:06:52.054Z,65.42
2023-02-17T16:10:01.285Z,65.30
2023-02-17T16:13:08.431Z,65.26
2023-02-17T16:16:22.187Z,65.83
2023-02-17T16:19:28.632Z,66.03
2023-02-17T16:22:34.913Z,66.41
2023-02-17T16:25:47.886Z,66.63
2023-02-17T16:28:54.680Z,66.43
2023-02-17T16:32:00.245Z,66.54
2023-02-17T16:35:06.646Z,66.09
2023-02-17T16:38:22.699Z,66.23
2023-02-17T16:41:32.205Z,65.77
2023-02-17T16:44:38.070Z,66.00
2023-02-17T16:47:47.249Z,65.75
2023-02-17T16:50:52.726Z,65.65
2023-02-17T16:53:59.499Z,65.83
2023-02-17T16:57:08.179Z,65.32
2023-02-17T17:00:17.146Z,65.24
2023-02-17T17:03:24.173Z,65.55
2023-02-17T17:06:33.153Z,65.29
2023-02-17T17:09:38.537Z,65.13
2023-02-17T17:12:49.382Z,64.62
2023-02-17T17:15:56.656Z,64.89
2023-02-17T17:19:04.176Z,65.17
2023-02-17T17:22:09.590Z,65.46
2023-02-17T17:25:16.392Z,65.12
2023-02-17T17:28:24.932Z,64.97
2023-02-17T17:31:32.273Z,64.90
2023-02-17T17:34:37.693Z,65.41
2023-02-17T17:37:44.430Z,65.80
2023-02-17T17:40:53.592Z,65.23
2023-02-17T17:44:02.857Z,65.62
2023-02-17T17:47:09.232Z,65.53
2023-02-17T17:50:23.423Z,66.27
2023-02-17T17:53:28.959Z,66.08
2023-02-17T17:56:39.526Z,66.36
2023-02-17T17:59:47.983Z,66.80
2023-02-17T18:02:54.276Z,67.27
2023-02-17T18:05:59.971Z,69.09
2023-02-17T18:09:10.827Z,69.66
2023-02-17T18:12:23.775Z,70.51
2023-02-17T18:15:32.970Z,70.39
2023-02-17T18:18:40.603Z,70.36
2023-02-17T18:21:47.951Z,70.61
2023-02-17T18:24:53.502Z,70.75
2023-02-17T18:27:59.808Z,70.56
2023-02-17T18:31:15.484Z,70.73
2023-02-17T18:34:21.988Z,70.72
2023-02-17T18:37:27.601Z,70.50
2023-02-17T18:40:34.490Z,70.65
2023-02-17T18:43:39.870Z,70.34
2023-02-17T18:46:48.923Z,70.21
2023-02-17T18:49:54.964Z,70.06
2023-02-17T18:53:03.062Z,69.86
2023-02-17T18:56:15.628Z,69.81
2023-02-17T18:59:22.140Z,69.79
2023-02-17T19:02:30.458Z,69.86
2023-02-17T19:05:36.857Z,69.39
2023-02-17T19:08:42.559Z,69.13
2023-02-17T19:11:48.860Z,69.04
2023-02-17T19:14:56.160Z,69.02
2023-02-17T19:18:05.373Z,69.10
2023-02-17T19:21:12.721Z,69.00
2023-02-17T19:24:19.695Z,69.57
2023-02-17T19:27:25.847Z,70.27
2023-02-17T19:30:32.447Z,70.65
2023-02-17T19:33:40.930Z,71.41
2023-02-17T19:36:47.268Z,72.22
2023-02-17T19:39:52.800Z,72.61
2023-02-17T19:42:59.137Z,73.25
2023-02-17T19:46:05.362Z,73.22
2023-02-17T19:49:17.538Z,73.51
2023-02-17T19:52:23.082Z,73.75
2023-02-17T19:55:30.287Z,73.57
2023-02-17T19:58:39.666Z,73.43
2023-02-17T20:01:46.317Z,73.74
2023-02-17T20:04:54.544Z,73.78
2023-02-17T20:08:00.882Z,73.71
2023-02-17T20:11:09.452Z,73.61
2023-02-17T20:14:15.809Z,73.59
2023-02-17T20:17:21.701Z,73.29
2023-02-17T20:20:31.100Z,73.27
2023-02-17T20:23:38.196Z,73.37
2023-02-17T20:26:47.705Z,73.13
2023-02-17T20:29:53.240Z,73.20
2023-02-17T20:32:59.548Z,73.03
2023-02-17T20:36:11.194Z,72.71
2023-02-17T20:39:17.661Z,72.46
2023-02-17T20:42:23.235Z,72.60
2023-02-17T20:45:30.320Z,71.89
2023-02-17T20:48:35.905Z,71.89
2023-02-17T20:51:45.099Z,71.63
2023-02-17T20:54:50.982Z,71.10
2023-02-17T20:57:58.147Z,71.24
2023-02-17T21:01:03.551Z,71.30
2023-02-17T21:04:10.696Z,71.38
2023-02-17T21:07:19.165Z,71.01
2023-02-17T21:10:30.692Z,71.01
2023-02-17T21:13:36.514Z,70.32
2023-02-17T21:16:42.970Z,70.57
2023-02-17T21:19:48.640Z,69.96
2023-02-17T21:22:57.953Z,70.10
2023-02-17T21:26:03.449Z,69.82
2023-02-17T21:29:10.047Z,69.75
2023-02-17T21:32:15.509Z,70.04
2023-02-17T21:35:22.047Z,69.32
2023-02-17T21:38:30.303Z,69.22
2023-02-17T21:41:36.616Z,69.39
2023-02-17T21:44:55.221Z,68.32
2023-02-17T21:48:01.720Z,68.92
2023-02-17T21:51:10.552Z,68.00
2023-02-17T21:54:19.774Z,68.60
2023-02-17T21:57:25.237Z,67.46
2023-02-17T22:00:31.559Z,67.96
2023-02-17T22:03:37.673Z,67.08
2023-02-17T22:06:45.613Z,67.97
2023-02-17T22:09:54.127Z,67.87
2023-02-17T22:13:00.362Z,67.40
2023-02-17T22:16:06.279Z,68.19
2023-02-17T22:19:19.185Z,67.31
2023-02-17T22:22:24.629Z,67.68
2023-02-17T22:25:34.247Z,67.47
2023-02-17T22:28:40.104Z,68.92
2023-02-17T22:31:46.594Z,68.82
2023-02-17T22:34:52.155Z,70.62
2023-02-17T22:37:59.890Z,70.35
2023-02-17T22:41:15.391Z,71.07
2023-02-17T22:44:22.391Z,71.25
2023-02-17T22:47:27.776Z,71.55
2023-02-17T22:50:34.095Z,71.79
2023-02-17T22:53:41.243Z,71.78
2023-02-17T22:56:50.311Z,71.50
2023-02-17T22:59:55.807Z,71.54
2023-02-17T23:03:02.288Z,71.76
2023-02-17T23:06:13.339Z,72.91
2023-02-17T23:09:22.901Z,73.28
2023-02-17T23:12:31.341Z,73.34
2023-02-17T23:15:43.717Z,73.29
2023-02-17T23:18:49.168Z,73.08
2023-02-17T23:22:00.034Z,73.14
2023-02-17T23:25:05.500Z,73.32
2023-02-17T23:28:14.730Z,73.11
2023-02-17T23:31:20.272Z,73.54
2023-02-17T23:34:26.680Z,73.52
2023-02-17T23:37:32.120Z,73.30
2023-02-17T23:40:39.228Z,72.24
2023-02-17T23:43:47.517Z,72.63
2023-02-17T23:46:53.863Z,71.90
2023-02-17T23:49:59.741Z,71.95
2023-02-17T23:53:06.108Z,71.58
2023-02-17T23:56:17.599Z,71.07
2023-02-17T23:59:26.879Z,71.21
